New Castle, New Hampshire
Current Conditions -  °F | °C
As of 8:58 AM on Sunday 23 Nov 2014 (Local Time) from KPSM Reporting Station
Broken Clouds Broken Clouds  
Wind Chill: 42°   Ceiling: 25000
Heat Index: 45°   Visibility: 10mi
Dew Point: 33°   Wind: 6mph
Humidity: 62%   Direction: 180°S
Pressure: 30.08"   Gusts: NA
Location:  43.07°N, 70.72°W
Report Text: KPSM 231358Z 18005KT 10SM FEW080 SCT120 BKN250 07/00 A3008 RMK AO2A SLP190 T00730004
Loading
Personal Weather Stations






























Interactive Weather Map New forecast layout! Learn more

10-Day Weather Forecast

Advertisements
Track Severe Weather on mobile